SAMR/AFA METAR and TAF weather

Enter ICAO airport designator
Station Type Date Time Source
SAMR METAR 2022/09/24 22:00 UTC NOAA

SAMR 242200Z 32023G30KT 9999 TS FEW025CB SCT030 17/01 Q1014


Station Type Date Time Source
SAMR Decoded METAR 2022/09/24 22:00 UTC NOAA

San Rafael Aerodrome, Argentina (SAMR) 34-35S 068-24W 748M
Sep 24, 2022 - 06:00 PM EDT / 2022.09.24 2200 UTC
Wind: from the NW (320 degrees) at 26 MPH (23 KT) gusting to 35 MPH (30 KT):0
Visibility: greater than 7 mile(s):0
Sky conditions: partly cloudy
Weather: thunder; Cumulonimbus clouds observed
Temperature: 62 F (17 C)
Dew Point: 33 F (1 C)
Relative Humidity: 33%
Pressure (altimeter): 29.94 in. Hg (1014 hPa)
ob: SAMR 242200Z 32023G30KT 9999 TS FEW025CB SCT030 17/01 Q1014
cycle: 22

Station Type Date Time Source
SAMR TAF 2022/09/26 06:12 UTC NOAA

TAF TAF SAMR 260500Z 2606/2706 VRB03KT CAVOK TX23/2619Z TN05/2608Z
BECMG 2614/2616 36010KT
BECMG 2621/2623 9999 FEW040
BECMG 2702/2704 16005KT 9999 BKN040

Example: see airport list